sensor_id;sensor_type;location;lat;lon;timestamp;temperature;humidity
21678;DHT22;11000;50.360;7.582;2023-05-10T00:01:04;14.00;99.90
21678;DHT22;11000;50.360;7.582;2023-05-10T00:03:25;14.00;99.90
21678;DHT22;11000;50.360;7.582;2023-05-10T00:05:46;13.90;99.90
21678;DHT22;11000;50.360;7.582;2023-05-10T00:08:06;14.00;99.90
21678;DHT22;11000;50.360;7.582;2023-05-10T00:10:27;14.00;99.90
21678;DHT22;11000;50.360;7.582;2023-05-10T00:12:47;13.90;99.90
21678;DHT22;11000;50.360;7.582;2023-05-10T00:15:08;13.90;99.90
21678;DHT22;11000;50.360;7.582;2023-05-10T00:17:29;13.90;99.90
21678;DHT22;11000;50.360;7.582;2023-05-10T00:19:50;13.90;99.90
21678;DHT22;11000;50.360;7.582;2023-05-10T00:22:10;13.90;99.90
21678;DHT22;11000;50.360;7.582;2023-05-10T00:24:31;13.90;99.90
21678;DHT22;11000;50.360;7.582;2023-05-10T00:26:51;13.80;99.90
21678;DHT22;11000;50.360;7.582;2023-05-10T00:29:12;13.80;99.90
21678;DHT22;11000;50.360;7.582;2023-05-10T00:31:32;13.80;99.90
21678;DHT22;11000;50.360;7.582;2023-05-10T00:33:53;13.90;99.90
21678;DHT22;11000;50.360;7.582;2023-05-10T00:36:13;13.80;99.90
21678;DHT22;11000;50.360;7.582;2023-05-10T00:38:34;13.80;99.90
21678;DHT22;11000;50.360;7.582;2023-05-10T00:40:54;13.80;99.90
21678;DHT22;11000;50.360;7.582;2023-05-10T00:43:15;13.80;99.90
21678;DHT22;11000;50.360;7.582;2023-05-10T00:45:35;13.80;99.90
21678;DHT22;11000;50.360;7.582;2023-05-10T00:47:57;13.80;99.90
21678;DHT22;11000;50.360;7.582;2023-05-10T00:50:18;13.80;99.90
21678;DHT22;11000;50.360;7.582;2023-05-10T00:52:39;13.80;99.90
21678;DHT22;11000;50.360;7.582;2023-05-10T00:55:00;13.70;99.90
21678;DHT22;11000;50.360;7.582;2023-05-10T00:57:21;13.70;99.90
21678;DHT22;11000;50.360;7.582;2023-05-10T00:59:42;13.80;99.90
21678;DHT22;11000;50.360;7.582;2023-05-10T01:02:02;13.70;99.90
21678;DHT22;11000;50.360;7.582;2023-05-10T01:04:23;13.70;99.90
21678;DHT22;11000;50.360;7.582;2023-05-10T01:06:45;13.70;99.90
21678;DHT22;11000;50.360;7.582;2023-05-10T01:09:06;13.70;99.90
21678;DHT22;11000;50.360;7.582;2023-05-10T01:11:27;13.70;99.90
21678;DHT22;11000;50.360;7.582;2023-05-10T01:13:52;13.60;99.90
21678;DHT22;11000;50.360;7.582;2023-05-10T01:16:15;13.70;99.90
21678;DHT22;11000;50.360;7.582;2023-05-10T01:18:40;13.70;99.90
21678;DHT22;11000;50.360;7.582;2023-05-10T01:32:11;13.60;99.90
21678;DHT22;11000;50.360;7.582;2023-05-10T01:37:24;13.50;99.90
21678;DHT22;11000;50.360;7.582;2023-05-10T01:39:49;13.60;99.90
21678;DHT22;11000;50.360;7.582;2023-05-10T01:42:17;13.60;99.90
21678;DHT22;11000;50.360;7.582;2023-05-10T01:44:46;13.60;99.90
21678;DHT22;11000;50.360;7.582;2023-05-10T01:47:46;13.50;99.90
21678;DHT22;11000;50.360;7.582;2023-05-10T01:50:15;13.50;99.90
21678;DHT22;11000;50.360;7.582;2023-05-10T01:52:42;13.40;99.90
21678;DHT22;11000;50.360;7.582;2023-05-10T01:55:11;13.50;99.90
21678;DHT22;11000;50.360;7.582;2023-05-10T01:57:35;13.50;99.90
21678;DHT22;11000;50.360;7.582;2023-05-10T01:59:56;13.50;99.90
21678;DHT22;11000;50.360;7.582;2023-05-10T02:02:20;13.50;99.90
21678;DHT22;11000;50.360;7.582;2023-05-10T02:04:41;13.50;99.90
21678;DHT22;11000;50.360;7.582;2023-05-10T02:07:02;13.50;99.90
21678;DHT22;11000;50.360;7.582;2023-05-10T02:09:25;13.50;99.90
21678;DHT22;11000;50.360;7.582;2023-05-10T02:11:48;13.60;99.90
21678;DHT22;11000;50.360;7.582;2023-05-10T02:14:10;13.50;99.90
21678;DHT22;11000;50.360;7.582;2023-05-10T02:16:31;13.60;99.90
21678;DHT22;11000;50.360;7.582;2023-05-10T02:18:52;13.60;99.90
21678;DHT22;11000;50.360;7.582;2023-05-10T02:21:14;13.60;99.90
21678;DHT22;11000;50.360;7.582;2023-05-10T02:23:36;13.60;99.90
21678;DHT22;11000;50.360;7.582;2023-05-10T02:25:58;13.60;99.90
21678;DHT22;11000;50.360;7.582;2023-05-10T02:28:22;13.60;99.90
21678;DHT22;11000;50.360;7.582;2023-05-10T02:30:43;13.70;99.90
21678;DHT22;11000;50.360;7.582;2023-05-10T02:33:05;13.70;99.90
21678;DHT22;11000;50.360;7.582;2023-05-10T02:35:26;13.70;99.90
21678;DHT22;11000;50.360;7.582;2023-05-10T02:37:47;13.70;99.90
21678;DHT22;11000;50.360;7.582;2023-05-10T02:40:09;13.70;99.90
21678;DHT22;11000;50.360;7.582;2023-05-10T02:42:33;13.70;99.90
21678;DHT22;11000;50.360;7.582;2023-05-10T02:44:59;13.70;99.90
21678;DHT22;11000;50.360;7.582;2023-05-10T02:47:20;13.70;99.90
21678;DHT22;11000;50.360;7.582;2023-05-10T02:49:41;13.70;99.90
21678;DHT22;11000;50.360;7.582;2023-05-10T02:52:05;13.70;99.90
21678;DHT22;11000;50.360;7.582;2023-05-10T02:54:30;13.70;99.90
21678;DHT22;11000;50.360;7.582;2023-05-10T02:56:56;13.70;99.90
21678;DHT22;11000;50.360;7.582;2023-05-10T02:59:17;13.70;99.90
21678;DHT22;11000;50.360;7.582;2023-05-10T03:01:38;13.70;99.90
21678;DHT22;11000;50.360;7.582;2023-05-10T03:03:58;13.70;99.90
21678;DHT22;11000;50.360;7.582;2023-05-10T03:06:19;13.70;99.90
21678;DHT22;11000;50.360;7.582;2023-05-10T03:08:40;13.60;99.90
21678;DHT22;11000;50.360;7.582;2023-05-10T03:16:25;13.50;99.90
21678;DHT22;11000;50.360;7.582;2023-05-10T03:19:15;13.50;99.90
21678;DHT22;11000;50.360;7.582;2023-05-10T03:21:40;13.60;99.90
21678;DHT22;11000;50.360;7.582;2023-05-10T03:24:08;13.60;99.90
21678;DHT22;11000;50.360;7.582;2023-05-10T03:26:32;13.50;99.90
21678;DHT22;11000;50.360;7.582;2023-05-10T03:28:54;13.50;99.90
21678;DHT22;11000;50.360;7.582;2023-05-10T03:31:15;13.60;99.90
21678;DHT22;11000;50.360;7.582;2023-05-10T03:33:49;13.50;99.90
21678;DHT22;11000;50.360;7.582;2023-05-10T03:36:09;13.40;99.90
21678;DHT22;11000;50.360;7.582;2023-05-10T03:38:30;13.40;99.90
21678;DHT22;11000;50.360;7.582;2023-05-10T03:40:51;13.40;99.90
21678;DHT22;11000;50.360;7.582;2023-05-10T03:43:12;13.40;99.90
21678;DHT22;11000;50.360;7.582;2023-05-10T03:45:33;13.40;99.90
21678;DHT22;11000;50.360;7.582;2023-05-10T03:47:53;13.50;99.90
21678;DHT22;11000;50.360;7.582;2023-05-10T03:50:15;13.40;99.90
21678;DHT22;11000;50.360;7.582;2023-05-10T03:52:36;13.50;99.90
21678;DHT22;11000;50.360;7.582;2023-05-10T03:54:59;13.50;99.90
21678;DHT22;11000;50.360;7.582;2023-05-10T03:57:23;13.50;99.90
21678;DHT22;11000;50.360;7.582;2023-05-10T03:59:44;13.50;99.90
21678;DHT22;11000;50.360;7.582;2023-05-10T04:02:06;13.50;99.90
21678;DHT22;11000;50.360;7.582;2023-05-10T04:04:26;13.60;99.90
21678;DHT22;11000;50.360;7.582;2023-05-10T04:06:50;13.60;99.90
21678;DHT22;11000;50.360;7.582;2023-05-10T04:09:14;13.60;99.90
21678;DHT22;11000;50.360;7.582;2023-05-10T04:11:35;13.60;99.90
21678;DHT22;11000;50.360;7.582;2023-05-10T04:13:56;13.60;99.90
21678;DHT22;11000;50.360;7.582;2023-05-10T04:16:17;13.60;99.90
21678;DHT22;11000;50.360;7.582;2023-05-10T04:18:38;13.50;99.90
21678;DHT22;11000;50.360;7.582;2023-05-10T04:21:02;13.40;99.90
21678;DHT22;11000;50.360;7.582;2023-05-10T04:23:23;13.50;99.90
21678;DHT22;11000;50.360;7.582;2023-05-10T04:25:43;13.60;99.90
21678;DHT22;11000;50.360;7.582;2023-05-10T04:28:04;13.60;99.90
21678;DHT22;11000;50.360;7.582;2023-05-10T04:30:24;13.60;99.90
21678;DHT22;11000;50.360;7.582;2023-05-10T04:32:45;13.60;99.90
21678;DHT22;11000;50.360;7.582;2023-05-10T04:35:07;13.60;99.90
21678;DHT22;11000;50.360;7.582;2023-05-10T04:37:27;13.60;99.90
21678;DHT22;11000;50.360;7.582;2023-05-10T04:39:49;13.60;99.90
21678;DHT22;11000;50.360;7.582;2023-05-10T04:42:15;13.60;99.90
21678;DHT22;11000;50.360;7.582;2023-05-10T04:44:36;13.70;99.90
21678;DHT22;11000;50.360;7.582;2023-05-10T04:46:57;13.70;99.90
21678;DHT22;11000;50.360;7.582;2023-05-10T04:49:17;13.70;99.90
21678;DHT22;11000;50.360;7.582;2023-05-10T04:51:38;13.70;99.90
21678;DHT22;11000;50.360;7.582;2023-05-10T04:53:59;13.70;99.90
21678;DHT22;11000;50.360;7.582;2023-05-10T04:56:20;13.60;99.90
21678;DHT22;11000;50.360;7.582;2023-05-10T04:58:42;13.70;99.90
21678;DHT22;11000;50.360;7.582;2023-05-10T05:01:09;13.70;99.90
21678;DHT22;11000;50.360;7.582;2023-05-10T05:03:31;13.70;99.90
21678;DHT22;11000;50.360;7.582;2023-05-10T05:05:52;13.70;99.90
21678;DHT22;11000;50.360;7.582;2023-05-10T05:08:16;13.80;99.90
21678;DHT22;11000;50.360;7.582;2023-05-10T05:10:38;13.80;99.90
21678;DHT22;11000;50.360;7.582;2023-05-10T05:12:59;13.80;99.90
21678;DHT22;11000;50.360;7.582;2023-05-10T05:15:20;13.80;99.90
21678;DHT22;11000;50.360;7.582;2023-05-10T05:17:41;13.80;99.90
21678;DHT22;11000;50.360;7.582;2023-05-10T05:20:02;13.80;99.90
21678;DHT22;11000;50.360;7.582;2023-05-10T05:22:23;13.80;99.90
21678;DHT22;11000;50.360;7.582;2023-05-10T05:24:50;13.80;99.90
21678;DHT22;11000;50.360;7.582;2023-05-10T05:27:11;13.80;99.90
21678;DHT22;11000;50.360;7.582;2023-05-10T05:29:32;13.90;99.90
21678;DHT22;11000;50.360;7.582;2023-05-10T05:31:54;13.90;99.90
21678;DHT22;11000;50.360;7.582;2023-05-10T05:34:14;13.90;99.90
21678;DHT22;11000;50.360;7.582;2023-05-10T05:36:36;13.90;99.90
21678;DHT22;11000;50.360;7.582;2023-05-10T05:38:58;14.00;99.90
21678;DHT22;11000;50.360;7.582;2023-05-10T05:41:19;14.00;99.90
21678;DHT22;11000;50.360;7.582;2023-05-10T05:43:40;14.00;99.90
21678;DHT22;11000;50.360;7.582;2023-05-10T05:46:03;14.00;99.90
21678;DHT22;11000;50.360;7.582;2023-05-10T05:48:24;14.00;99.90
21678;DHT22;11000;50.360;7.582;2023-05-10T05:50:45;14.10;99.90
21678;DHT22;11000;50.360;7.582;2023-05-10T05:53:09;14.00;99.90
21678;DHT22;11000;50.360;7.582;2023-05-10T05:55:31;14.20;99.90
21678;DHT22;11000;50.360;7.582;2023-05-10T05:57:52;14.20;99.90
21678;DHT22;11000;50.360;7.582;2023-05-10T06:00:14;14.30;99.90
21678;DHT22;11000;50.360;7.582;2023-05-10T06:02:35;14.40;99.90
21678;DHT22;11000;50.360;7.582;2023-05-10T06:04:57;14.40;99.90
21678;DHT22;11000;50.360;7.582;2023-05-10T06:07:18;14.50;99.90
21678;DHT22;11000;50.360;7.582;2023-05-10T06:09:38;14.50;99.90
21678;DHT22;11000;50.360;7.582;2023-05-10T06:11:59;14.50;99.90
21678;DHT22;11000;50.360;7.582;2023-05-10T06:14:23;14.50;99.90
21678;DHT22;11000;50.360;7.582;2023-05-10T06:16:43;14.50;99.90
21678;DHT22;11000;50.360;7.582;2023-05-10T06:19:04;14.50;99.90
21678;DHT22;11000;50.360;7.582;2023-05-10T06:21:26;14.50;99.90
21678;DHT22;11000;50.360;7.582;2023-05-10T06:23:46;14.50;99.90
21678;DHT22;11000;50.360;7.582;2023-05-10T06:26:07;14.60;99.90
21678;DHT22;11000;50.360;7.582;2023-05-10T06:28:31;14.70;99.90
21678;DHT22;11000;50.360;7.582;2023-05-10T06:30:56;14.80;99.90
21678;DHT22;11000;50.360;7.582;2023-05-10T06:33:17;14.80;99.90
21678;DHT22;11000;50.360;7.582;2023-05-10T06:35:39;14.90;99.90
21678;DHT22;11000;50.360;7.582;2023-05-10T06:38:00;14.90;99.90
21678;DHT22;11000;50.360;7.582;2023-05-10T06:40:21;14.90;99.90
21678;DHT22;11000;50.360;7.582;2023-05-10T06:42:42;14.90;99.90
21678;DHT22;11000;50.360;7.582;2023-05-10T06:45:02;14.90;99.90
21678;DHT22;11000;50.360;7.582;2023-05-10T06:47:23;14.80;99.90
21678;DHT22;11000;50.360;7.582;2023-05-10T06:49:47;14.80;99.90
21678;DHT22;11000;50.360;7.582;2023-05-10T06:52:11;14.80;99.90
21678;DHT22;11000;50.360;7.582;2023-05-10T06:54:32;14.70;99.90
21678;DHT22;11000;50.360;7.582;2023-05-10T06:56:54;14.60;99.90
21678;DHT22;11000;50.360;7.582;2023-05-10T06:59:15;14.60;99.90
21678;DHT22;11000;50.360;7.582;2023-05-10T07:01:39;14.60;99.90
21678;DHT22;11000;50.360;7.582;2023-05-10T07:04:01;14.50;99.90
21678;DHT22;11000;50.360;7.582;2023-05-10T07:06:22;14.40;99.90
21678;DHT22;11000;50.360;7.582;2023-05-10T07:08:43;14.40;99.90
21678;DHT22;11000;50.360;7.582;2023-05-10T07:11:06;14.40;99.90
21678;DHT22;11000;50.360;7.582;2023-05-10T07:13:27;14.40;99.90
21678;DHT22;11000;50.360;7.582;2023-05-10T07:15:48;14.40;99.90
21678;DHT22;11000;50.360;7.582;2023-05-10T07:18:08;14.40;99.90
21678;DHT22;11000;50.360;7.582;2023-05-10T07:20:29;14.50;99.90
21678;DHT22;11000;50.360;7.582;2023-05-10T07:22:49;14.40;99.90
21678;DHT22;11000;50.360;7.582;2023-05-10T07:25:10;14.40;99.90
21678;DHT22;11000;50.360;7.582;2023-05-10T07:27:31;14.40;99.90
21678;DHT22;11000;50.360;7.582;2023-05-10T07:29:51;14.40;99.90
21678;DHT22;11000;50.360;7.582;2023-05-10T07:32:12;14.40;99.90
21678;DHT22;11000;50.360;7.582;2023-05-10T07:34:32;14.40;99.90
21678;DHT22;11000;50.360;7.582;2023-05-10T07:36:53;14.40;99.90
21678;DHT22;11000;50.360;7.582;2023-05-10T07:39:14;14.40;99.90
21678;DHT22;11000;50.360;7.582;2023-05-10T07:41:34;14.40;99.90
21678;DHT22;11000;50.360;7.582;2023-05-10T07:43:55;14.40;99.90
21678;DHT22;11000;50.360;7.582;2023-05-10T07:46:15;14.40;99.90
21678;DHT22;11000;50.360;7.582;2023-05-10T07:48:37;14.50;99.90
21678;DHT22;11000;50.360;7.582;2023-05-10T07:50:57;14.50;99.90
21678;DHT22;11000;50.360;7.582;2023-05-10T07:53:18;14.50;99.90
21678;DHT22;11000;50.360;7.582;2023-05-10T07:55:40;14.40;99.90
21678;DHT22;11000;50.360;7.582;2023-05-10T07:58:03;14.50;99.90
21678;DHT22;11000;50.360;7.582;2023-05-10T08:00:24;14.40;99.90
21678;DHT22;11000;50.360;7.582;2023-05-10T08:02:45;14.40;99.90
21678;DHT22;11000;50.360;7.582;2023-05-10T08:05:06;14.50;99.90
21678;DHT22;11000;50.360;7.582;2023-05-10T08:07:26;14.40;99.90
21678;DHT22;11000;50.360;7.582;2023-05-10T08:09:47;14.50;99.90
21678;DHT22;11000;50.360;7.582;2023-05-10T08:12:07;14.60;99.90
21678;DHT22;11000;50.360;7.582;2023-05-10T08:14:31;14.60;99.90
21678;DHT22;11000;50.360;7.582;2023-05-10T08:16:52;14.60;99.90
21678;DHT22;11000;50.360;7.582;2023-05-10T08:19:12;14.70;99.90
21678;DHT22;11000;50.360;7.582;2023-05-10T08:21:33;14.70;99.90
21678;DHT22;11000;50.360;7.582;2023-05-10T08:23:53;14.90;99.90
21678;DHT22;11000;50.360;7.582;2023-05-10T08:26:14;15.00;99.90
21678;DHT22;11000;50.360;7.582;2023-05-10T08:28:35;15.10;99.90
21678;DHT22;11000;50.360;7.582;2023-05-10T08:30:56;15.20;99.90
21678;DHT22;11000;50.360;7.582;2023-05-10T08:33:18;15.30;99.90
21678;DHT22;11000;50.360;7.582;2023-05-10T08:35:38;15.40;99.90
21678;DHT22;11000;50.360;7.582;2023-05-10T08:37:59;15.50;99.90
21678;DHT22;11000;50.360;7.582;2023-05-10T08:40:20;15.60;99.90
21678;DHT22;11000;50.360;7.582;2023-05-10T08:42:45;15.70;99.90
21678;DHT22;11000;50.360;7.582;2023-05-10T08:45:09;15.80;99.90
21678;DHT22;11000;50.360;7.582;2023-05-10T08:47:30;15.80;99.90
21678;DHT22;11000;50.360;7.582;2023-05-10T08:49:52;15.80;99.90
21678;DHT22;11000;50.360;7.582;2023-05-10T08:52:13;15.90;99.90
21678;DHT22;11000;50.360;7.582;2023-05-10T08:54:35;16.00;99.90
21678;DHT22;11000;50.360;7.582;2023-05-10T08:56:56;16.00;99.90
21678;DHT22;11000;50.360;7.582;2023-05-10T08:59:17;16.10;99.90
21678;DHT22;11000;50.360;7.582;2023-05-10T09:01:38;16.00;99.90
21678;DHT22;11000;50.360;7.582;2023-05-10T09:03:59;16.00;99.90
21678;DHT22;11000;50.360;7.582;2023-05-10T09:06:20;15.90;99.90
21678;DHT22;11000;50.360;7.582;2023-05-10T09:08:41;15.90;99.90
21678;DHT22;11000;50.360;7.582;2023-05-10T09:11:03;15.90;99.90
21678;DHT22;11000;50.360;7.582;2023-05-10T09:13:24;15.80;99.90
21678;DHT22;11000;50.360;7.582;2023-05-10T09:15:46;15.80;99.90
21678;DHT22;11000;50.360;7.582;2023-05-10T09:18:07;15.70;99.90
21678;DHT22;11000;50.360;7.582;2023-05-10T09:20:28;15.70;99.90
21678;DHT22;11000;50.360;7.582;2023-05-10T09:22:48;15.80;99.90
21678;DHT22;11000;50.360;7.582;2023-05-10T09:25:12;15.70;99.90
21678;DHT22;11000;50.360;7.582;2023-05-10T09:27:33;15.70;99.90
21678;DHT22;11000;50.360;7.582;2023-05-10T09:29:53;15.70;99.90
21678;DHT22;11000;50.360;7.582;2023-05-10T09:32:15;15.60;99.90
21678;DHT22;11000;50.360;7.582;2023-05-10T09:34:35;15.60;99.90
21678;DHT22;11000;50.360;7.582;2023-05-10T09:37:02;15.60;99.90
21678;DHT22;11000;50.360;7.582;2023-05-10T09:39:36;15.70;99.90
21678;DHT22;11000;50.360;7.582;2023-05-10T09:41:58;15.80;99.90
21678;DHT22;11000;50.360;7.582;2023-05-10T09:44:19;15.90;99.90
21678;DHT22;11000;50.360;7.582;2023-05-10T09:46:40;15.90;99.90
21678;DHT22;11000;50.360;7.582;2023-05-10T09:49:00;15.80;99.90
21678;DHT22;11000;50.360;7.582;2023-05-10T09:51:22;15.90;99.90
21678;DHT22;11000;50.360;7.582;2023-05-10T09:53:43;15.90;99.90
21678;DHT22;11000;50.360;7.582;2023-05-10T09:56:03;15.90;99.90
21678;DHT22;11000;50.360;7.582;2023-05-10T09:58:24;15.90;99.90
21678;DHT22;11000;50.360;7.582;2023-05-10T10:00:45;16.00;99.90
21678;DHT22;11000;50.360;7.582;2023-05-10T10:03:18;16.10;99.90
21678;DHT22;11000;50.360;7.582;2023-05-10T10:05:40;16.10;99.90
21678;DHT22;11000;50.360;7.582;2023-05-10T10:08:04;16.40;99.90
21678;DHT22;11000;50.360;7.582;2023-05-10T10:10:25;16.80;99.90
21678;DHT22;11000;50.360;7.582;2023-05-10T10:12:47;17.00;99.90
21678;DHT22;11000;50.360;7.582;2023-05-10T10:15:08;17.10;99.90
21678;DHT22;11000;50.360;7.582;2023-05-10T10:17:30;17.20;99.90
21678;DHT22;11000;50.360;7.582;2023-05-10T10:19:52;17.30;99.90
21678;DHT22;11000;50.360;7.582;2023-05-10T10:22:13;17.30;99.90
21678;DHT22;11000;50.360;7.582;2023-05-10T10:24:41;17.40;99.90
21678;DHT22;11000;50.360;7.582;2023-05-10T10:27:14;17.50;99.90
21678;DHT22;11000;50.360;7.582;2023-05-10T10:29:41;17.50;99.90
21678;DHT22;11000;50.360;7.582;2023-05-10T10:35:13;17.60;99.90
21678;DHT22;11000;50.360;7.582;2023-05-10T10:37:47;17.70;99.90
21678;DHT22;11000;50.360;7.582;2023-05-10T10:40:25;17.70;99.90
21678;DHT22;11000;50.360;7.582;2023-05-10T10:42:47;17.60;99.90
21678;DHT22;11000;50.360;7.582;2023-05-10T10:45:13;17.50;99.90
21678;DHT22;11000;50.360;7.582;2023-05-10T10:47:34;17.40;99.90
21678;DHT22;11000;50.360;7.582;2023-05-10T10:55:19;17.30;99.90
21678;DHT22;11000;50.360;7.582;2023-05-10T10:57:48;17.40;99.90
21678;DHT22;11000;50.360;7.582;2023-05-10T11:00:45;17.50;99.90
21678;DHT22;11000;50.360;7.582;2023-05-10T11:03:08;17.50;99.90
21678;DHT22;11000;50.360;7.582;2023-05-10T11:05:41;17.60;99.90
21678;DHT22;11000;50.360;7.582;2023-05-10T11:08:28;17.50;99.90
21678;DHT22;11000;50.360;7.582;2023-05-10T11:15:50;17.30;99.90
21678;DHT22;11000;50.360;7.582;2023-05-10T11:18:23;17.30;99.90
21678;DHT22;11000;50.360;7.582;2023-05-10T11:21:00;17.40;99.90
21678;DHT22;11000;50.360;7.582;2023-05-10T11:23:22;17.50;99.90
21678;DHT22;11000;50.360;7.582;2023-05-10T11:25:45;17.50;99.90
21678;DHT22;11000;50.360;7.582;2023-05-10T11:28:06;17.50;99.90
21678;DHT22;11000;50.360;7.582;2023-05-10T11:30:27;17.50;99.90
21678;DHT22;11000;50.360;7.582;2023-05-10T11:32:47;17.30;99.90
21678;DHT22;11000;50.360;7.582;2023-05-10T11:35:09;17.30;99.90
21678;DHT22;11000;50.360;7.582;2023-05-10T11:37:30;17.50;99.90
21678;DHT22;11000;50.360;7.582;2023-05-10T11:39:54;17.50;99.90
21678;DHT22;11000;50.360;7.582;2023-05-10T11:42:15;17.80;99.90
21678;DHT22;11000;50.360;7.582;2023-05-10T11:44:35;17.90;99.90
21678;DHT22;11000;50.360;7.582;2023-05-10T11:46:58;18.10;99.90
21678;DHT22;11000;50.360;7.582;2023-05-10T11:49:20;18.10;99.90
21678;DHT22;11000;50.360;7.582;2023-05-10T11:51:43;18.30;99.90
21678;DHT22;11000;50.360;7.582;2023-05-10T11:54:08;18.60;99.90
21678;DHT22;11000;50.360;7.582;2023-05-10T11:56:32;18.70;99.90
21678;DHT22;11000;50.360;7.582;2023-05-10T11:58:55;18.50;99.90
21678;DHT22;11000;50.360;7.582;2023-05-10T12:01:16;18.60;99.90
21678;DHT22;11000;50.360;7.582;2023-05-10T12:03:37;18.60;99.90
21678;DHT22;11000;50.360;7.582;2023-05-10T12:05:59;18.60;99.90
21678;DHT22;11000;50.360;7.582;2023-05-10T12:08:22;18.40;99.90
21678;DHT22;11000;50.360;7.582;2023-05-10T12:10:43;18.30;99.90
21678;DHT22;11000;50.360;7.582;2023-05-10T12:13:04;17.90;99.90
21678;DHT22;11000;50.360;7.582;2023-05-10T12:15:25;17.80;99.90
21678;DHT22;11000;50.360;7.582;2023-05-10T12:17:46;17.50;99.90
21678;DHT22;11000;50.360;7.582;2023-05-10T12:20:17;17.40;99.90
21678;DHT22;11000;50.360;7.582;2023-05-10T12:22:38;17.40;99.90
21678;DHT22;11000;50.360;7.582;2023-05-10T12:24:59;17.50;99.90
21678;DHT22;11000;50.360;7.582;2023-05-10T12:27:19;17.50;99.90
21678;DHT22;11000;50.360;7.582;2023-05-10T12:29:41;17.50;99.90
21678;DHT22;11000;50.360;7.582;2023-05-10T12:32:04;17.40;99.90
21678;DHT22;11000;50.360;7.582;2023-05-10T12:34:33;17.40;99.90
21678;DHT22;11000;50.360;7.582;2023-05-10T12:36:54;17.50;99.90
21678;DHT22;11000;50.360;7.582;2023-05-10T12:39:15;17.70;99.90
21678;DHT22;11000;50.360;7.582;2023-05-10T12:41:35;17.90;99.90
21678;DHT22;11000;50.360;7.582;2023-05-10T12:43:56;18.10;99.90
21678;DHT22;11000;50.360;7.582;2023-05-10T12:46:17;18.10;99.90
21678;DHT22;11000;50.360;7.582;2023-05-10T12:48:40;18.20;99.90
21678;DHT22;11000;50.360;7.582;2023-05-10T12:51:02;18.40;99.90
21678;DHT22;11000;50.360;7.582;2023-05-10T12:53:22;18.70;99.90
21678;DHT22;11000;50.360;7.582;2023-05-10T12:55:44;19.00;99.90
21678;DHT22;11000;50.360;7.582;2023-05-10T12:58:04;19.40;99.90
21678;DHT22;11000;50.360;7.582;2023-05-10T13:00:25;19.90;99.90
21678;DHT22;11000;50.360;7.582;2023-05-10T13:02:46;20.10;99.90
21678;DHT22;11000;50.360;7.582;2023-05-10T13:05:06;19.90;99.90
21678;DHT22;11000;50.360;7.582;2023-05-10T13:07:33;19.60;99.90
21678;DHT22;11000;50.360;7.582;2023-05-10T13:09:54;19.00;99.90
21678;DHT22;11000;50.360;7.582;2023-05-10T13:12:14;18.60;99.90
21678;DHT22;11000;50.360;7.582;2023-05-10T13:14:35;18.30;99.90
21678;DHT22;11000;50.360;7.582;2023-05-10T13:16:56;18.10;99.90
21678;DHT22;11000;50.360;7.582;2023-05-10T13:19:17;17.70;99.90
21678;DHT22;11000;50.360;7.582;2023-05-10T13:21:38;17.40;99.90
21678;DHT22;11000;50.360;7.582;2023-05-10T13:23:58;17.00;99.90
21678;DHT22;11000;50.360;7.582;2023-05-10T13:26:19;16.70;99.90
21678;DHT22;11000;50.360;7.582;2023-05-10T13:28:40;16.60;99.90
21678;DHT22;11000;50.360;7.582;2023-05-10T13:31:00;16.60;99.90
21678;DHT22;11000;50.360;7.582;2023-05-10T13:33:21;16.50;99.90
21678;DHT22;11000;50.360;7.582;2023-05-10T13:35:41;16.40;99.90
21678;DHT22;11000;50.360;7.582;2023-05-10T13:38:02;16.40;99.90
21678;DHT22;11000;50.360;7.582;2023-05-10T13:40:22;16.40;99.90
21678;DHT22;11000;50.360;7.582;2023-05-10T13:42:43;16.40;99.90
21678;DHT22;11000;50.360;7.582;2023-05-10T13:45:04;16.50;99.90
21678;DHT22;11000;50.360;7.582;2023-05-10T13:47:24;16.60;99.90
21678;DHT22;11000;50.360;7.582;2023-05-10T13:49:45;16.60;99.90
21678;DHT22;11000;50.360;7.582;2023-05-10T13:52:05;16.70;99.90
21678;DHT22;11000;50.360;7.582;2023-05-10T13:54:27;16.70;99.90
21678;DHT22;11000;50.360;7.582;2023-05-10T13:56:49;16.80;99.90
21678;DHT22;11000;50.360;7.582;2023-05-10T13:59:10;16.90;99.90
21678;DHT22;11000;50.360;7.582;2023-05-10T14:01:31;17.00;99.90
21678;DHT22;11000;50.360;7.582;2023-05-10T14:03:52;17.10;99.90
21678;DHT22;11000;50.360;7.582;2023-05-10T14:06:14;17.30;99.90
21678;DHT22;11000;50.360;7.582;2023-05-10T14:08:35;17.40;99.90
21678;DHT22;11000;50.360;7.582;2023-05-10T14:10:56;17.60;99.90
21678;DHT22;11000;50.360;7.582;2023-05-10T14:13:17;17.90;99.90
21678;DHT22;11000;50.360;7.582;2023-05-10T14:15:37;18.30;99.90
21678;DHT22;11000;50.360;7.582;2023-05-10T14:17:58;18.50;99.90
21678;DHT22;11000;50.360;7.582;2023-05-10T14:20:18;18.70;99.90
21678;DHT22;11000;50.360;7.582;2023-05-10T14:22:39;18.70;99.90
21678;DHT22;11000;50.360;7.582;2023-05-10T14:25:00;18.80;99.90
21678;DHT22;11000;50.360;7.582;2023-05-10T14:27:21;18.90;99.90
21678;DHT22;11000;50.360;7.582;2023-05-10T14:29:43;19.00;99.90
21678;DHT22;11000;50.360;7.582;2023-05-10T14:32:07;19.10;99.90
21678;DHT22;11000;50.360;7.582;2023-05-10T14:34:27;19.10;99.90
21678;DHT22;11000;50.360;7.582;2023-05-10T14:36:48;19.00;99.90
21678;DHT22;11000;50.360;7.582;2023-05-10T14:39:09;19.00;99.90
21678;DHT22;11000;50.360;7.582;2023-05-10T14:41:32;19.00;99.90
21678;DHT22;11000;50.360;7.582;2023-05-10T14:43:53;19.00;99.90
21678;DHT22;11000;50.360;7.582;2023-05-10T14:46:13;19.00;99.90
21678;DHT22;11000;50.360;7.582;2023-05-10T14:48:34;18.90;99.90
21678;DHT22;11000;50.360;7.582;2023-05-10T14:50:55;18.80;99.90
21678;DHT22;11000;50.360;7.582;2023-05-10T14:53:16;18.70;99.90
21678;DHT22;11000;50.360;7.582;2023-05-10T14:55:36;18.60;99.90
21678;DHT22;11000;50.360;7.582;2023-05-10T14:57:58;18.60;99.90
21678;DHT22;11000;50.360;7.582;2023-05-10T15:00:19;18.60;99.90
21678;DHT22;11000;50.360;7.582;2023-05-10T15:02:40;18.50;99.90
21678;DHT22;11000;50.360;7.582;2023-05-10T15:05:00;18.50;99.90
21678;DHT22;11000;50.360;7.582;2023-05-10T15:07:20;18.60;99.90
21678;DHT22;11000;50.360;7.582;2023-05-10T15:09:41;18.70;99.90
21678;DHT22;11000;50.360;7.582;2023-05-10T15:12:02;18.80;99.90
21678;DHT22;11000;50.360;7.582;2023-05-10T15:14:24;18.90;99.90
21678;DHT22;11000;50.360;7.582;2023-05-10T15:16:48;18.90;99.90
21678;DHT22;11000;50.360;7.582;2023-05-10T15:19:08;18.80;99.90
21678;DHT22;11000;50.360;7.582;2023-05-10T15:21:29;18.60;99.90
21678;DHT22;11000;50.360;7.582;2023-05-10T15:23:55;18.30;99.90
21678;DHT22;11000;50.360;7.582;2023-05-10T15:26:15;18.00;99.90
21678;DHT22;11000;50.360;7.582;2023-05-10T15:28:36;18.00;99.90
21678;DHT22;11000;50.360;7.582;2023-05-10T15:30:56;17.90;99.90